CMA CGM Platon — 2ACH6 — position and weather

sailwx.info

Track history (hours):
 
Tides and Currents Weather Stations Pressure Air Temp Water Temp Dewpoint Dewpoint Depression Visibility Wind Speed Wind Dir Waves Ship Positions

CMA CGM Platon

Last reported at 2018-Jan-18 05:44 UTC. Time now 2018-Jan-23 16:18 UTC.
Position N 06°29' W 011°20'.

Length 170 m; draft 9.4 m.

Type: Ship (hazmat cat A). MMSI: 235058584.

Date/timePositionNaut miles runAvg speedWind from/ knotsBaromVisibWave heightAir tempDewpointWater temp
2018-Jan-18 05:44N 06°29' W 011°20'  
2018-Jan-12 01:30N 35°50' W 006°09'815.8
2018-Jan-12 01:00N 35°55' W 006°01'916.2
2018-Jan-12 00:27N 35°56' W 005°50'715.5
2018-Jan-12 00:00N 35°56' W 005°41'714.7
2018-Jan-11 23:30N 35°57' W 005°33'4 8.3
2018-Jan-11 23:00N 35°54' W 005°30'0 0.5
2018-Jan-11 22:27N 35°54' W 005°29'0 0.0
2018-Jan-11 21:56N 35°54' W 005°29'0 0.0
2018-Jan-11 21:20N 35°54' W 005°29'0 0.0
2018-Jan-11 20:56N 35°54' W 005°29'0 0.0
2018-Jan-11 20:26N 35°54' W 005°29'0 0.0
2018-Jan-11 19:56N 35°54' W 005°29'0 0.0
2018-Jan-11 19:29N 35°54' W 005°29'0 0.0
2018-Jan-11 19:00N 35°54' W 005°29'0 0.0
2018-Jan-11 18:24N 35°54' W 005°29'0 0.0
2018-Jan-11 18:01N 35°54' W 005°29'0 0.0
2018-Jan-11 17:28N 35°54' W 005°29'0 0.0
2018-Jan-11 16:58N 35°54' W 005°29'0 0.0
2018-Jan-11 16:30N 35°54' W 005°29'0 0.0
2018-Jan-11 16:00N 35°54' W 005°29'0 0.0
2018-Jan-11 15:30N 35°54' W 005°29'0 0.0
2018-Jan-11 14:58N 35°54' W 005°29'0 0.0
2018-Jan-11 14:30N 35°54' W 005°29'0 0.0
2018-Jan-11 13:53N 35°54' W 005°29'0 0.0
2018-Jan-11 13:31N 35°54' W 005°29'1 3.0
2018-Jan-11 13:01N 35°55' W 005°30'2 4.8
2018-Jan-11 12:30N 35°54' W 005°33'1 0.7
2018-Jan-11 11:07N 35°53' W 005°34'0 0.1
2018-Jan-11 10:55N 35°53' W 005°34'0 0.0
2018-Jan-11 09:46N 35°53' W 005°34'0 0.0
2018-Jan-11 08:30N 35°53' W 005°34'0 0.0
2018-Jan-11 07:48N 35°53' W 005°34'0 0.0
2018-Jan-11 07:24N 35°53' W 005°34'0 0.1
2018-Jan-11 07:00N 35°53' W 005°34'1 1.6
2018-Jan-11 06:30N 35°53' W 005°33'4 8.4
2018-Jan-11 06:01N 35°57' W 005°30'3 6.8
2018-Jan-11 05:30N 35°59' W 005°27'3 6.1
2018-Jan-11 05:00N 35°60' W 005°23'3 5.9
2018-Jan-11 04:30N 36°01' W 005°20'3 5.6
2018-Jan-11 04:00N 36°02' W 005°17'3 6.2
2018-Jan-11 03:30N 36°04' W 005°13'4 7.4
2018-Jan-11 03:00N 36°05' W 005°09'4 8.2
2018-Jan-11 02:30N 36°07' W 005°05'4 8.4
2018-Jan-11 02:00N 36°09' W 004°60'4 7.7
2018-Jan-11 01:29N 36°10' W 004°55'4 7.5
2018-Jan-11 01:00N 36°12' W 004°52'4 7.4
2018-Jan-11 00:30N 36°15' W 004°49'4 7.0
2018-Jan-10 23:58N 36°18' W 004°46'2 3.7
2018-Jan-10 23:30N 36°20' W 004°45'2 3.3
2018-Jan-10 23:00N 36°19' W 004°47'2 3.2
2018-Jan-10 22:28N 36°19' W 004°49'1 2.8
2018-Jan-10 21:57N 36°18' W 004°51'1 3.1
2018-Jan-10 21:30N 36°18' W 004°53'2 3.4
2018-Jan-10 20:58N 36°17' W 004°55'2 3.6
2018-Jan-10 20:30N 36°16' W 004°57'1 1.6
2018-Jan-10 19:58N 36°16' W 004°57'1 2.7
2018-Jan-10 19:30N 36°16' W 004°56'2 3.2
2018-Jan-10 18:57N 36°16' W 004°54'2 3.6
2018-Jan-10 18:30N 36°16' W 004°52'2 3.5
2018-Jan-10 17:59N 36°16' W 004°49'2 3.3
2018-Jan-10 17:27N 36°17' W 004°47'0 0.5
2018-Jan-10 17:00N 36°17' W 004°47'1 2.1
2018-Jan-10 16:30N 36°16' W 004°48'1 2.2
2018-Jan-10 15:59N 36°16' W 004°50'1 2.3
2018-Jan-10 15:30N 36°16' W 004°51'1 1.3
2018-Jan-10 15:00N 36°16' W 004°52'1 2.2
2018-Jan-10 14:29N 36°16' W 004°53'1 2.2
2018-Jan-10 14:00N 36°16' W 004°55'1 2.1
2018-Jan-10 13:29N 36°16' W 004°56'1 0.1
2018-Jan-09 14:46N 36°16' W 004°54'13 1.7
2018-Jan-09 06:50N 36°20' W 004°39'1 2.9
2018-Jan-09 06:30N 36°20' W 004°40'1 2.7
2018-Jan-09 05:58N 36°20' W 004°42'1 2.6
2018-Jan-09 05:30N 36°20' W 004°43'1 2.6
2018-Jan-09 05:00N 36°19' W 004°45'1 2.3
2018-Jan-09 04:30N 36°19' W 004°46'1 2.0
2018-Jan-09 04:00N 36°19' W 004°47'1 2.8
2018-Jan-09 03:30N 36°18' W 004°46'1 1.6
2018-Jan-09 03:00N 36°18' W 004°47'1 2.5
2018-Jan-09 02:31N 36°17' W 004°48'0 0.3
2018-Jan-09 02:01N 36°17' W 004°48'1 2.5
2018-Jan-09 01:30N 36°17' W 004°47'0 0.3
2018-Jan-09 01:00N 36°17' W 004°47'1 3.0
2018-Jan-09 00:31N 36°17' W 004°49'1 2.9
2018-Jan-09 00:00N 36°17' W 004°50'1 2.8
2018-Jan-08 23:30N 36°16' W 004°52'1 2.7
2018-Jan-08 23:00N 36°16' W 004°54'1 2.0
2018-Jan-08 22:30N 36°16' W 004°55'1 1.9
2018-Jan-08 22:00N 36°15' W 004°56'1 1.8
2018-Jan-08 21:30N 36°15' W 004°57'3 5.2
2018-Jan-08 21:00N 36°13' W 004°59'815.8
2018-Jan-08 20:29N 36°09' W 005°08'816.5
2018-Jan-08 20:01N 36°04' W 005°16'7 9.9
2018-Jan-08 19:17N 36°06' W 005°25'1 0.2
2018-Jan-08 14:05N 36°08' W 005°25'0 0.0
2018-Jan-08 13:35N 36°08' W 005°25'0 0.0
2018-Jan-08 13:26N 36°08' W 005°25'0 0.0
2018-Jan-08 12:59N 36°08' W 005°25'0 0.0
2018-Jan-08 12:29N 36°08' W 005°25'0 0.0
2018-Jan-08 11:56N 36°08' W 005°25'0 0.0
2018-Jan-08 07:44N 36°08' W 005°25'0 0.0
2018-Jan-08 07:29N 36°08' W 005°25'0 0.0
2018-Jan-08 06:53N 36°08' W 005°25'0 0.0
2018-Jan-08 06:29N 36°08' W 005°25'0 0.0
2018-Jan-08 05:59N 36°08' W 005°25'  
Track history (hours):
 
Tides and Currents Weather Stations Pressure Air Temp Water Temp Dewpoint Dewpoint Depression Visibility Wind Speed Wind Dir Waves Ship Positions

CMA CGM Platon

Last reported at 2018-Jan-18 05:44 UTC. Time now 2018-Jan-23 16:18 UTC.
Position N 06°29' W 011°20'.

Length 170 m; draft 9.4 m.

Type: Ship (hazmat cat A). MMSI: 235058584.

Date/timePositionNaut miles runAvg speedWind from/ knotsBaromVisibWave heightAir tempDewpointWater temp
2018-Jan-18 05:44N 06°29' W 011°20'  
2018-Jan-12 01:30N 35°50' W 006°09'815.8
2018-Jan-12 01:00N 35°55' W 006°01'916.2
2018-Jan-12 00:27N 35°56' W 005°50'715.5
2018-Jan-12 00:00N 35°56' W 005°41'714.7
2018-Jan-11 23:30N 35°57' W 005°33'4 8.3
2018-Jan-11 23:00N 35°54' W 005°30'0 0.5
2018-Jan-11 22:27N 35°54' W 005°29'0 0.0
2018-Jan-11 21:56N 35°54' W 005°29'0 0.0
2018-Jan-11 21:20N 35°54' W 005°29'0 0.0
2018-Jan-11 20:56N 35°54' W 005°29'0 0.0
2018-Jan-11 20:26N 35°54' W 005°29'0 0.0
2018-Jan-11 19:56N 35°54' W 005°29'0 0.0
2018-Jan-11 19:29N 35°54' W 005°29'0 0.0
2018-Jan-11 19:00N 35°54' W 005°29'0 0.0
2018-Jan-11 18:24N 35°54' W 005°29'0 0.0
2018-Jan-11 18:01N 35°54' W 005°29'0 0.0
2018-Jan-11 17:28N 35°54' W 005°29'0 0.0
2018-Jan-11 16:58N 35°54' W 005°29'0 0.0
2018-Jan-11 16:30N 35°54' W 005°29'0 0.0
2018-Jan-11 16:00N 35°54' W 005°29'0 0.0
2018-Jan-11 15:30N 35°54' W 005°29'0 0.0
2018-Jan-11 14:58N 35°54' W 005°29'0 0.0
2018-Jan-11 14:30N 35°54' W 005°29'0 0.0
2018-Jan-11 13:53N 35°54' W 005°29'0 0.0
2018-Jan-11 13:31N 35°54' W 005°29'1 3.0
2018-Jan-11 13:01N 35°55' W 005°30'2 4.8
2018-Jan-11 12:30N 35°54' W 005°33'1 0.7
2018-Jan-11 11:07N 35°53' W 005°34'0 0.1
2018-Jan-11 10:55N 35°53' W 005°34'0 0.0
2018-Jan-11 09:46N 35°53' W 005°34'0 0.0
2018-Jan-11 08:30N 35°53' W 005°34'0 0.0
2018-Jan-11 07:48N 35°53' W 005°34'0 0.0
2018-Jan-11 07:24N 35°53' W 005°34'0 0.1
2018-Jan-11 07:00N 35°53' W 005°34'1 1.6
2018-Jan-11 06:30N 35°53' W 005°33'4 8.4
2018-Jan-11 06:01N 35°57' W 005°30'3 6.8
2018-Jan-11 05:30N 35°59' W 005°27'3 6.1
2018-Jan-11 05:00N 35°60' W 005°23'3 5.9
2018-Jan-11 04:30N 36°01' W 005°20'3 5.6
2018-Jan-11 04:00N 36°02' W 005°17'3 6.2
2018-Jan-11 03:30N 36°04' W 005°13'4 7.4
2018-Jan-11 03:00N 36°05' W 005°09'4 8.2
2018-Jan-11 02:30N 36°07' W 005°05'4 8.4
2018-Jan-11 02:00N 36°09' W 004°60'4 7.7
2018-Jan-11 01:29N 36°10' W 004°55'4 7.5
2018-Jan-11 01:00N 36°12' W 004°52'4 7.4
2018-Jan-11 00:30N 36°15' W 004°49'4 7.0
2018-Jan-10 23:58N 36°18' W 004°46'2 3.7
2018-Jan-10 23:30N 36°20' W 004°45'2 3.3
2018-Jan-10 23:00N 36°19' W 004°47'2 3.2
2018-Jan-10 22:28N 36°19' W 004°49'1 2.8
2018-Jan-10 21:57N 36°18' W 004°51'1 3.1
2018-Jan-10 21:30N 36°18' W 004°53'2 3.4
2018-Jan-10 20:58N 36°17' W 004°55'2 3.6
2018-Jan-10 20:30N 36°16' W 004°57'1 1.6
2018-Jan-10 19:58N 36°16' W 004°57'1 2.7
2018-Jan-10 19:30N 36°16' W 004°56'2 3.2
2018-Jan-10 18:57N 36°16' W 004°54'2 3.6
2018-Jan-10 18:30N 36°16' W 004°52'2 3.5
2018-Jan-10 17:59N 36°16' W 004°49'2 3.3
2018-Jan-10 17:27N 36°17' W 004°47'0 0.5
2018-Jan-10 17:00N 36°17' W 004°47'1 2.1
2018-Jan-10 16:30N 36°16' W 004°48'1 2.2
2018-Jan-10 15:59N 36°16' W 004°50'1 2.3
2018-Jan-10 15:30N 36°16' W 004°51'1 1.3
2018-Jan-10 15:00N 36°16' W 004°52'1 2.2
2018-Jan-10 14:29N 36°16' W 004°53'1 2.2
2018-Jan-10 14:00N 36°16' W 004°55'1 2.1
2018-Jan-10 13:29N 36°16' W 004°56'1 0.1
2018-Jan-09 14:46N 36°16' W 004°54'13 1.7
2018-Jan-09 06:50N 36°20' W 004°39'1 2.9
2018-Jan-09 06:30N 36°20' W 004°40'1 2.7
2018-Jan-09 05:58N 36°20' W 004°42'1 2.6
2018-Jan-09 05:30N 36°20' W 004°43'1 2.6
2018-Jan-09 05:00N 36°19' W 004°45'1 2.3
2018-Jan-09 04:30N 36°19' W 004°46'1 2.0
2018-Jan-09 04:00N 36°19' W 004°47'1 2.8
2018-Jan-09 03:30N 36°18' W 004°46'1 1.6
2018-Jan-09 03:00N 36°18' W 004°47'1 2.5
2018-Jan-09 02:31N 36°17' W 004°48'0 0.3
2018-Jan-09 02:01N 36°17' W 004°48'1 2.5
2018-Jan-09 01:30N 36°17' W 004°47'0 0.3
2018-Jan-09 01:00N 36°17' W 004°47'1 3.0
2018-Jan-09 00:31N 36°17' W 004°49'1 2.9
2018-Jan-09 00:00N 36°17' W 004°50'1 2.8
2018-Jan-08 23:30N 36°16' W 004°52'1 2.7
2018-Jan-08 23:00N 36°16' W 004°54'1 2.0
2018-Jan-08 22:30N 36°16' W 004°55'1 1.9
2018-Jan-08 22:00N 36°15' W 004°56'1 1.8
2018-Jan-08 21:30N 36°15' W 004°57'3 5.2
2018-Jan-08 21:00N 36°13' W 004°59'815.8
2018-Jan-08 20:29N 36°09' W 005°08'816.5
2018-Jan-08 20:01N 36°04' W 005°16'7 9.9
2018-Jan-08 19:17N 36°06' W 005°25'1 0.2
2018-Jan-08 14:05N 36°08' W 005°25'0 0.0
2018-Jan-08 13:35N 36°08' W 005°25'0 0.0
2018-Jan-08 13:26N 36°08' W 005°25'0 0.0
2018-Jan-08 12:59N 36°08' W 005°25'0 0.0
2018-Jan-08 12:29N 36°08' W 005°25'0 0.0
2018-Jan-08 11:56N 36°08' W 005°25'0 0.0
2018-Jan-08 07:44N 36°08' W 005°25'0 0.0
2018-Jan-08 07:29N 36°08' W 005°25'0 0.0
2018-Jan-08 06:53N 36°08' W 005°25'0 0.0
2018-Jan-08 06:29N 36°08' W 005°25'0 0.0
2018-Jan-08 05:59N 36°08' W 005°25'  

Dump ship's entire track history